createdAt,value
2022-10-23T00:01:44.290Z,101105.00
2022-10-23T00:04:20.057Z,101096.00
2022-10-23T00:06:48.848Z,101102.00
2022-10-23T00:09:21.557Z,101100.00
2022-10-23T00:11:50.947Z,101103.00
2022-10-23T00:14:24.892Z,101092.00
2022-10-23T00:16:52.603Z,101095.00
2022-10-23T00:19:19.864Z,101095.00
2022-10-23T00:21:47.222Z,101081.00
2022-10-23T00:24:14.613Z,101075.00
2022-10-23T00:26:42.421Z,101086.00
2022-10-23T00:29:12.031Z,101084.00
2022-10-23T00:31:39.624Z,101081.00
2022-10-23T00:34:08.732Z,101077.00
2022-10-23T00:36:37.382Z,101075.00
2022-10-23T00:39:05.751Z,101077.00
2022-10-23T00:41:33.040Z,101072.00
2022-10-23T00:44:05.332Z,101072.00
2022-10-23T00:46:33.810Z,101069.00
2022-10-23T00:49:02.764Z,101063.00
2022-10-23T00:51:40.631Z,101066.00
2022-10-23T00:54:25.377Z,101074.00
2022-10-23T00:57:00.542Z,101062.00
2022-10-23T00:59:29.157Z,101062.00
2022-10-23T01:01:56.831Z,101080.00
2022-10-23T01:04:26.484Z,101072.00
2022-10-23T01:07:22.446Z,101075.00
2022-10-23T01:10:17.103Z,101075.00
2022-10-23T01:13:02.593Z,101078.00
2022-10-23T01:15:49.453Z,101074.00
2022-10-23T01:18:34.598Z,101067.00
2022-10-23T01:21:17.432Z,101054.00
2022-10-23T01:23:50.372Z,101052.00
2022-10-23T01:26:45.443Z,101056.00
2022-10-23T01:30:00.112Z,101053.00
2022-10-23T01:32:43.230Z,101052.00
2022-10-23T01:35:14.894Z,101043.00
2022-10-23T01:38:01.369Z,101040.00
2022-10-23T01:41:03.166Z,101029.00
2022-10-23T01:43:45.017Z,101032.00
2022-10-23T01:46:17.683Z,101015.00
2022-10-23T01:48:54.283Z,101022.00
2022-10-23T01:51:26.641Z,101017.00
2022-10-23T01:53:59.467Z,101024.00
2022-10-23T01:56:33.145Z,101032.00
2022-10-23T01:59:10.147Z,101013.00
2022-10-23T02:01:42.203Z,101014.00
2022-10-23T02:04:14.450Z,101012.00
2022-10-23T02:06:42.200Z,101014.00
2022-10-23T02:09:09.739Z,101012.00
2022-10-23T02:11:53.865Z,101010.00
2022-10-23T02:14:42.413Z,101006.00
2022-10-23T02:17:43.134Z,101015.00
2022-10-23T02:20:22.630Z,101008.00
2022-10-23T02:23:03.071Z,101008.00
2022-10-23T02:26:28.561Z,100999.00
2022-10-23T02:29:09.734Z,101000.00
2022-10-23T02:31:37.246Z,101001.00
2022-10-23T02:34:05.021Z,100986.00
2022-10-23T02:36:32.948Z,100997.00
2022-10-23T02:39:00.198Z,101004.00
2022-10-23T02:41:42.202Z,100993.00
2022-10-23T02:44:31.034Z,100989.00
2022-10-23T02:47:39.933Z,100991.00
2022-10-23T02:50:29.766Z,100991.00
2022-10-23T02:53:05.906Z,100986.00
2022-10-23T02:56:07.057Z,100985.00
2022-10-23T02:59:07.084Z,100970.00
2022-10-23T03:01:51.322Z,100973.00
2022-10-23T03:04:23.473Z,100967.00
2022-10-23T03:06:52.198Z,100961.00
2022-10-23T03:09:19.531Z,100949.00
2022-10-23T03:11:47.018Z,100952.00
2022-10-23T03:14:14.874Z,100939.00
2022-10-23T03:16:42.190Z,100947.00
2022-10-23T03:21:37.218Z,100944.00
2022-10-23T03:24:04.824Z,100937.00
2022-10-23T03:26:32.105Z,100939.00
2022-10-23T03:28:59.293Z,100919.00
2022-10-23T03:31:26.663Z,100924.00
2022-10-23T03:33:53.828Z,100922.00
2022-10-23T03:36:21.137Z,100918.00
2022-10-23T03:38:48.418Z,100905.00
2022-10-23T03:41:15.699Z,100906.00
2022-10-23T03:43:43.137Z,100909.00
2022-10-23T03:46:13.040Z,100909.00
2022-10-23T03:48:42.235Z,100905.00
2022-10-23T03:51:09.520Z,100906.00
2022-10-23T03:53:37.964Z,100903.00
2022-10-23T03:56:07.545Z,100904.00
2022-10-23T03:58:34.986Z,100900.00
2022-10-23T04:01:02.369Z,100894.00
2022-10-23T04:03:29.632Z,100890.00
2022-10-23T04:05:56.963Z,100899.00
2022-10-23T04:08:24.213Z,100894.00
2022-10-23T04:10:51.532Z,100891.00
2022-10-23T04:13:21.188Z,100883.00
2022-10-23T04:15:53.130Z,100876.00
2022-10-23T04:18:20.614Z,100877.00
2022-10-23T04:20:49.894Z,100871.00
2022-10-23T04:23:17.971Z,100869.00
2022-10-23T04:25:45.630Z,100863.00
2022-10-23T04:28:13.237Z,100859.00
2022-10-23T04:30:41.950Z,100866.00
2022-10-23T04:33:09.145Z,100851.00
2022-10-23T04:35:36.534Z,100848.00
2022-10-23T04:38:03.948Z,100834.00
2022-10-23T04:40:31.171Z,100833.00
2022-10-23T04:42:58.489Z,100835.00
2022-10-23T04:45:25.714Z,100844.00
2022-10-23T04:47:53.672Z,100851.00
2022-10-23T04:50:21.565Z,100859.00
2022-10-23T04:52:49.028Z,100853.00
2022-10-23T04:55:16.347Z,100850.00
2022-10-23T04:57:43.713Z,100844.00
2022-10-23T05:00:14.918Z,100837.00
2022-10-23T05:02:42.549Z,100847.00
2022-10-23T05:05:10.418Z,100843.00
2022-10-23T05:07:38.998Z,100846.00
2022-10-23T05:10:07.360Z,100844.00
2022-10-23T05:12:34.791Z,100845.00
2022-10-23T05:15:02.249Z,100831.00
2022-10-23T05:17:37.928Z,100833.00
2022-10-23T05:20:12.925Z,100821.00
2022-10-23T05:22:43.116Z,100821.00
2022-10-23T05:25:11.770Z,100805.00
2022-10-23T05:27:39.156Z,100807.00
2022-10-23T05:30:07.217Z,100800.00
2022-10-23T05:32:36.068Z,100820.00
2022-10-23T05:35:11.268Z,100815.00
2022-10-23T05:37:42.038Z,100798.00
2022-10-23T05:40:10.317Z,100810.00
2022-10-23T05:42:40.810Z,100799.00
2022-10-23T05:45:09.696Z,100808.00
2022-10-23T05:47:37.067Z,100813.00
2022-10-23T05:50:04.650Z,100805.00
2022-10-23T05:52:31.815Z,100806.00
2022-10-23T05:54:59.046Z,100803.00
2022-10-23T05:57:26.393Z,100800.00
2022-10-23T05:59:53.762Z,100806.00
2022-10-23T06:02:21.127Z,100799.00
2022-10-23T06:04:48.417Z,100799.00
2022-10-23T06:07:15.729Z,100797.00
2022-10-23T06:09:42.836Z,100787.00
2022-10-23T06:12:10.093Z,100796.00
2022-10-23T06:14:37.256Z,100781.00
2022-10-23T06:17:04.360Z,100789.00
2022-10-23T06:19:32.299Z,100787.00
2022-10-23T06:21:59.629Z,100777.00
2022-10-23T06:24:26.709Z,100782.00
2022-10-23T06:26:54.019Z,100780.00
2022-10-23T06:29:21.323Z,100779.00
2022-10-23T06:31:48.932Z,100782.00
2022-10-23T06:34:16.442Z,100776.00
2022-10-23T06:36:43.946Z,100779.00
2022-10-23T06:39:11.280Z,100767.00
2022-10-23T06:41:39.923Z,100775.00
2022-10-23T06:44:07.128Z,100767.00
2022-10-23T06:46:36.424Z,100774.00
2022-10-23T06:49:04.150Z,100767.00
2022-10-23T06:51:31.283Z,100781.00
2022-10-23T06:53:58.594Z,100780.00
2022-10-23T06:56:29.326Z,100769.00
2022-10-23T06:58:57.002Z,100766.00
2022-10-23T07:01:24.562Z,100759.00
2022-10-23T07:03:51.790Z,100752.00
2022-10-23T07:06:19.798Z,100757.00
2022-10-23T07:08:47.203Z,100762.00
2022-10-23T07:11:14.632Z,100756.00
2022-10-23T07:13:42.748Z,100759.00
2022-10-23T07:16:22.903Z,100749.00
2022-10-23T07:19:02.157Z,100744.00
2022-10-23T07:21:35.087Z,100745.00
2022-10-23T07:24:04.088Z,100735.00
2022-10-23T07:26:32.996Z,100732.00
2022-10-23T07:29:00.260Z,100730.00
2022-10-23T07:31:28.520Z,100725.00
2022-10-23T07:33:55.812Z,100739.00
2022-10-23T07:36:23.185Z,100731.00
2022-10-23T07:38:51.779Z,100727.00
2022-10-23T07:41:19.330Z,100739.00
2022-10-23T07:43:47.035Z,100728.00
2022-10-23T07:46:14.293Z,100736.00
2022-10-23T07:48:41.708Z,100726.00
2022-10-23T07:51:15.722Z,100719.00
2022-10-23T07:53:43.972Z,100717.00
2022-10-23T07:56:17.618Z,100708.00
2022-10-23T07:58:45.033Z,100706.00
2022-10-23T08:01:26.307Z,100713.00
2022-10-23T08:03:53.445Z,100705.00
2022-10-23T08:07:18.389Z,100713.00
2022-10-23T08:09:45.582Z,100707.00
2022-10-23T08:12:13.154Z,100711.00
2022-10-23T08:14:40.762Z,100715.00
2022-10-23T08:17:10.132Z,100719.00
2022-10-23T08:19:37.736Z,100725.00
2022-10-23T08:22:05.509Z,100710.00
2022-10-23T08:24:32.966Z,100710.00
2022-10-23T08:27:00.207Z,100704.00
2022-10-23T08:29:27.834Z,100705.00
2022-10-23T08:31:58.197Z,100706.00
2022-10-23T08:34:25.631Z,100707.00
2022-10-23T08:36:52.950Z,100699.00
2022-10-23T08:39:20.160Z,100690.00
2022-10-23T08:41:53.070Z,100687.00
2022-10-23T08:44:33.809Z,100689.00
2022-10-23T08:47:19.012Z,100672.00
2022-10-23T08:50:30.883Z,100677.00
2022-10-23T08:53:30.839Z,100682.00
2022-10-23T08:56:25.176Z,100672.00
2022-10-23T08:59:33.373Z,100673.00
2022-10-23T09:02:35.589Z,100666.00
2022-10-23T09:05:03.061Z,100658.00
2022-10-23T09:07:57.839Z,100654.00
2022-10-23T09:10:51.519Z,100652.00
2022-10-23T09:14:01.248Z,100649.00
2022-10-23T09:17:00.316Z,100642.00
2022-10-23T09:19:29.501Z,100639.00
2022-10-23T09:21:58.076Z,100636.00
2022-10-23T09:24:28.608Z,100632.00
2022-10-23T09:26:56.005Z,100635.00
2022-10-23T09:29:33.058Z,100635.00
2022-10-23T09:32:04.241Z,100624.00
2022-10-23T09:34:34.211Z,100630.00
2022-10-23T09:37:17.705Z,100624.00
2022-10-23T09:39:45.203Z,100607.00
2022-10-23T09:42:26.639Z,100611.00
2022-10-23T09:44:55.780Z,100597.00
2022-10-23T09:47:26.277Z,100605.00
2022-10-23T09:49:57.583Z,100597.00
2022-10-23T09:52:35.945Z,100602.00
2022-10-23T09:55:21.606Z,100581.00
2022-10-23T09:57:49.925Z,100581.00
2022-10-23T10:00:26.034Z,100575.00
2022-10-23T10:03:02.163Z,100565.00
2022-10-23T10:05:41.989Z,100576.00
2022-10-23T10:08:21.648Z,100574.00
2022-10-23T10:10:58.221Z,100581.00
2022-10-23T10:13:51.480Z,100571.00
2022-10-23T10:16:45.982Z,100558.00
2022-10-23T10:19:34.221Z,100551.00
2022-10-23T10:22:56.550Z,100562.00
2022-10-23T10:25:57.111Z,100564.00
2022-10-23T10:29:07.223Z,100560.00
2022-10-23T10:32:10.341Z,100548.00
2022-10-23T10:35:27.057Z,100533.00
2022-10-23T10:38:19.916Z,100520.00
2022-10-23T10:41:14.464Z,100519.00
2022-10-23T10:44:01.415Z,100525.00
2022-10-23T10:46:56.420Z,100525.00
2022-10-23T10:49:45.233Z,100511.00
2022-10-23T10:52:46.639Z,100509.00
2022-10-23T10:55:41.432Z,100500.00
2022-10-23T10:58:42.153Z,100500.00
2022-10-23T11:01:27.036Z,100510.00
2022-10-23T11:04:49.254Z,100502.00
2022-10-23T11:07:25.698Z,100501.00
2022-10-23T11:09:54.329Z,100480.00
2022-10-23T11:12:26.953Z,100482.00
2022-10-23T11:14:54.900Z,100472.00
2022-10-23T11:17:39.537Z,100473.00
2022-10-23T11:20:26.634Z,100474.00
2022-10-23T11:23:29.644Z,100470.00
2022-10-23T11:26:51.425Z,100471.00
2022-10-23T11:29:42.573Z,100455.00
2022-10-23T11:35:40.940Z,100446.00
2022-10-23T11:38:20.515Z,100446.00
2022-10-23T11:41:34.186Z,100440.00
2022-10-23T11:44:05.043Z,100434.00
2022-10-23T11:46:39.097Z,100433.00
2022-10-23T11:49:21.020Z,100435.00
2022-10-23T11:51:59.697Z,100442.00
2022-10-23T11:54:27.705Z,100424.00
2022-10-23T11:57:13.491Z,100415.00
2022-10-23T11:59:49.988Z,100405.00
2022-10-23T12:02:33.828Z,100405.00
2022-10-23T12:05:10.577Z,100400.00
2022-10-23T12:07:42.139Z,100402.00
2022-10-23T12:10:34.825Z,100391.00
2022-10-23T12:13:30.900Z,100379.00
2022-10-23T12:16:00.749Z,100365.00
2022-10-23T12:18:29.031Z,100374.00
2022-10-23T12:21:04.806Z,100386.00
2022-10-23T12:23:57.556Z,100377.00
2022-10-23T12:27:02.364Z,100381.00
2022-10-23T12:29:41.086Z,100372.00
2022-10-23T12:32:29.303Z,100377.00
2022-10-23T12:35:29.324Z,100371.00
2022-10-23T12:38:19.722Z,100361.00
2022-10-23T12:41:10.351Z,100370.00
2022-10-23T12:43:40.850Z,100362.00
2022-10-23T12:46:36.947Z,100352.00
2022-10-23T12:49:14.846Z,100347.00
2022-10-23T12:51:42.691Z,100346.00
2022-10-23T12:54:20.869Z,100343.00
2022-10-23T12:56:49.255Z,100340.00
2022-10-23T12:59:39.319Z,100351.00
2022-10-23T13:02:28.589Z,100346.00
2022-10-23T13:05:02.502Z,100351.00
2022-10-23T13:07:34.871Z,100348.00
2022-10-23T13:10:04.279Z,100335.00
2022-10-23T13:12:38.516Z,100345.00
2022-10-23T13:15:09.093Z,100340.00
2022-10-23T13:18:00.135Z,100335.00
2022-10-23T13:20:41.460Z,100324.00
2022-10-23T13:23:10.455Z,100334.00
2022-10-23T13:25:39.919Z,100323.00
2022-10-23T13:28:35.574Z,100315.00
2022-10-23T13:31:12.576Z,100310.00
2022-10-23T13:33:46.278Z,100305.00
2022-10-23T13:36:16.835Z,100296.00
2022-10-23T13:39:05.264Z,100302.00
2022-10-23T13:41:46.789Z,100290.00
2022-10-23T13:44:17.616Z,100291.00
2022-10-23T13:46:45.367Z,100292.00
2022-10-23T13:49:12.937Z,100281.00
2022-10-23T13:51:53.617Z,100282.00
2022-10-23T13:54:29.212Z,100285.00
2022-10-23T13:56:57.592Z,100282.00
2022-10-23T13:59:24.879Z,100278.00
2022-10-23T14:01:52.949Z,100274.00
2022-10-23T14:04:21.303Z,100281.00
2022-10-23T14:06:48.618Z,100272.00
2022-10-23T14:09:18.597Z,100271.00
2022-10-23T14:11:46.351Z,100265.00
2022-10-23T14:14:13.776Z,100262.00
2022-10-23T14:16:41.474Z,100261.00
2022-10-23T14:19:10.736Z,100263.00
2022-10-23T14:21:37.948Z,100262.00
2022-10-23T14:24:06.483Z,100258.00
2022-10-23T14:26:34.561Z,100257.00
2022-10-23T14:29:08.942Z,100245.00
2022-10-23T14:31:38.800Z,100246.00
2022-10-23T14:34:06.449Z,100241.00
2022-10-23T14:36:43.287Z,100232.00
2022-10-23T14:39:18.783Z,100224.00
2022-10-23T14:41:47.672Z,100234.00
2022-10-23T14:44:15.392Z,100259.00
2022-10-23T14:46:42.903Z,100270.00
2022-10-23T14:49:10.338Z,100278.00
2022-10-23T14:51:37.482Z,100264.00
2022-10-23T14:54:07.817Z,100259.00
2022-10-23T14:56:39.147Z,100245.00
2022-10-23T14:59:08.241Z,100231.00
2022-10-23T15:01:45.846Z,100233.00
2022-10-23T15:04:16.175Z,100238.00
2022-10-23T15:06:44.015Z,100236.00
2022-10-23T15:09:11.506Z,100236.00
2022-10-23T15:11:39.146Z,100227.00
2022-10-23T15:14:06.766Z,100237.00
2022-10-23T15:16:41.642Z,100227.00
2022-10-23T15:19:18.123Z,100221.00
2022-10-23T15:21:49.465Z,100223.00
2022-10-23T15:24:18.245Z,100230.00
2022-10-23T15:26:45.694Z,100222.00
2022-10-23T15:29:14.965Z,100221.00
2022-10-23T15:31:55.176Z,100215.00
2022-10-23T15:34:27.238Z,100223.00
2022-10-23T15:36:56.660Z,100224.00
2022-10-23T15:39:33.999Z,100215.00
2022-10-23T15:42:04.042Z,100226.00
2022-10-23T15:44:33.727Z,100225.00
2022-10-23T15:47:01.131Z,100244.00
2022-10-23T15:49:30.204Z,100233.00
2022-10-23T15:51:59.134Z,100241.00
2022-10-23T15:54:29.266Z,100232.00
2022-10-23T15:56:59.409Z,100230.00
2022-10-23T15:59:28.297Z,100225.00
2022-10-23T16:01:56.101Z,100229.00
2022-10-23T16:04:23.452Z,100230.00
2022-10-23T16:06:50.899Z,100216.00
2022-10-23T16:09:18.473Z,100206.00
2022-10-23T16:11:45.725Z,100199.00
2022-10-23T16:14:16.348Z,100170.00
2022-10-23T16:16:44.120Z,100149.00
2022-10-23T16:19:12.474Z,100135.00
2022-10-23T16:21:41.661Z,100101.00
2022-10-23T16:24:12.643Z,100088.00
2022-10-23T16:26:55.467Z,100073.00
2022-10-23T16:29:24.308Z,100068.00
2022-10-23T16:31:55.923Z,100093.00
2022-10-23T16:34:23.838Z,100117.00
2022-10-23T16:36:51.732Z,100127.00
2022-10-23T16:39:20.984Z,100146.00
2022-10-23T16:41:48.164Z,100159.00
2022-10-23T16:44:15.521Z,100160.00
2022-10-23T16:46:42.726Z,100154.00
2022-10-23T16:49:10.611Z,100149.00
2022-10-23T16:51:38.188Z,100139.00
2022-10-23T16:54:06.266Z,100146.00
2022-10-23T16:56:34.028Z,100148.00
2022-10-23T16:59:01.902Z,100155.00
2022-10-23T17:01:32.935Z,100165.00
2022-10-23T17:04:01.324Z,100185.00
2022-10-23T17:06:32.624Z,100182.00
2022-10-23T17:09:09.450Z,100174.00
2022-10-23T17:11:40.488Z,100177.00
2022-10-23T17:14:19.261Z,100163.00
2022-10-23T17:16:50.329Z,100167.00
2022-10-23T17:19:43.348Z,100169.00
2022-10-23T17:22:10.909Z,100176.00
2022-10-23T17:24:40.675Z,100180.00
2022-10-23T17:27:08.747Z,100170.00
2022-10-23T17:29:36.985Z,100186.00
2022-10-23T17:32:04.616Z,100184.00
2022-10-23T17:34:35.036Z,100176.00
2022-10-23T17:37:02.857Z,100188.00
2022-10-23T17:39:31.174Z,100192.00
2022-10-23T17:41:59.435Z,100186.00
2022-10-23T17:44:27.171Z,100188.00
2022-10-23T17:46:56.346Z,100186.00
2022-10-23T17:49:25.428Z,100185.00
2022-10-23T17:51:56.702Z,100194.00
2022-10-23T17:54:27.650Z,100176.00
2022-10-23T17:56:55.433Z,100178.00
2022-10-23T17:59:23.441Z,100174.00
2022-10-23T18:01:51.303Z,100188.00
2022-10-23T18:04:21.894Z,100172.00
2022-10-23T18:06:53.129Z,100167.00
2022-10-23T18:09:22.291Z,100150.00
2022-10-23T18:11:50.650Z,100155.00
2022-10-23T18:14:20.830Z,100163.00
2022-10-23T18:16:49.004Z,100177.00
2022-10-23T18:19:18.664Z,100177.00
2022-10-23T18:21:47.684Z,100178.00
2022-10-23T18:24:16.074Z,100173.00
2022-10-23T18:26:44.974Z,100169.00
2022-10-23T18:29:13.743Z,100173.00
2022-10-23T18:31:42.452Z,100177.00
2022-10-23T18:34:21.165Z,100163.00
2022-10-23T18:36:50.961Z,100172.00
2022-10-23T18:39:23.296Z,100167.00
2022-10-23T18:41:54.922Z,100165.00
2022-10-23T18:44:24.741Z,100155.00
2022-10-23T18:46:52.597Z,100162.00
2022-10-23T18:49:21.125Z,100159.00
2022-10-23T18:51:50.367Z,100138.00
2022-10-23T18:54:20.854Z,100141.00
2022-10-23T18:56:48.978Z,100138.00
2022-10-23T18:59:21.206Z,100147.00
2022-10-23T19:01:50.283Z,100144.00
2022-10-23T19:04:18.791Z,100143.00
2022-10-23T19:06:48.761Z,100145.00
2022-10-23T19:09:16.997Z,100143.00
2022-10-23T19:11:46.193Z,100141.00
2022-10-23T19:14:14.630Z,100157.00
2022-10-23T19:17:06.510Z,100152.00
2022-10-23T19:19:48.876Z,100160.00
2022-10-23T19:22:18.051Z,100163.00
2022-10-23T19:24:59.491Z,100159.00
2022-10-23T19:27:28.542Z,100150.00
2022-10-23T19:29:56.810Z,100147.00
2022-10-23T19:32:24.605Z,100137.00
2022-10-23T19:34:52.230Z,100148.00
2022-10-23T19:37:19.606Z,100150.00
2022-10-23T19:39:46.983Z,100148.00
2022-10-23T19:42:14.352Z,100143.00
2022-10-23T19:44:41.774Z,100160.00
2022-10-23T19:47:09.054Z,100169.00
2022-10-23T19:49:36.520Z,100190.00
2022-10-23T19:52:04.135Z,100161.00
2022-10-23T19:54:31.586Z,100164.00
2022-10-23T19:56:59.206Z,100158.00
2022-10-23T19:59:26.648Z,100168.00
2022-10-23T20:01:54.097Z,100164.00
2022-10-23T20:04:21.492Z,100175.00
2022-10-23T20:06:49.060Z,100185.00
2022-10-23T20:09:16.628Z,100201.00
2022-10-23T20:11:45.536Z,100220.00
2022-10-23T20:14:13.244Z,100204.00
2022-10-23T20:16:40.542Z,100225.00
2022-10-23T20:19:12.274Z,100227.00
2022-10-23T20:21:44.109Z,100222.00
2022-10-23T20:24:16.095Z,100226.00
2022-10-23T20:26:51.836Z,100239.00
2022-10-23T20:29:20.345Z,100250.00
2022-10-23T20:31:48.243Z,100249.00
2022-10-23T20:34:16.529Z,100240.00
2022-10-23T20:36:48.379Z,100249.00
2022-10-23T20:39:21.066Z,100256.00
2022-10-23T20:41:49.041Z,100245.00
2022-10-23T20:44:19.330Z,100257.00
2022-10-23T20:46:46.960Z,100237.00
2022-10-23T20:49:15.427Z,100254.00
2022-10-23T20:51:43.496Z,100242.00
2022-10-23T20:54:11.474Z,100251.00
2022-10-23T20:56:40.373Z,100237.00
2022-10-23T20:59:14.271Z,100245.00
2022-10-23T21:01:48.706Z,100236.00
2022-10-23T21:04:19.441Z,100257.00
2022-10-23T21:07:09.459Z,100255.00
2022-10-23T21:09:38.437Z,100249.00
2022-10-23T21:12:07.316Z,100253.00
2022-10-23T21:14:35.943Z,100261.00
2022-10-23T21:17:04.583Z,100260.00
2022-10-23T21:19:32.352Z,100242.00
2022-10-23T21:22:00.382Z,100256.00
2022-10-23T21:24:27.992Z,100256.00
2022-10-23T21:26:55.440Z,100250.00
2022-10-23T21:29:22.771Z,100257.00
2022-10-23T21:31:59.713Z,100250.00
2022-10-23T21:34:28.716Z,100245.00
2022-10-23T21:37:13.893Z,100247.00
2022-10-23T21:39:44.955Z,100250.00
2022-10-23T21:42:15.366Z,100243.00
2022-10-23T21:44:43.520Z,100257.00
2022-10-23T21:47:11.393Z,100256.00
2022-10-23T21:49:39.259Z,100249.00
2022-10-23T21:52:07.128Z,100256.00
2022-10-23T21:54:35.107Z,100248.00
2022-10-23T21:57:03.852Z,100241.00
2022-10-23T21:59:33.135Z,100236.00
2022-10-23T22:02:02.984Z,100236.00
2022-10-23T22:04:30.591Z,100240.00
2022-10-23T22:06:58.021Z,100233.00
2022-10-23T22:09:25.661Z,100245.00
2022-10-23T22:11:54.768Z,100244.00
2022-10-23T22:14:23.715Z,100228.00
2022-10-23T22:16:52.669Z,100243.00
2022-10-23T22:19:22.456Z,100242.00
2022-10-23T22:21:51.946Z,100246.00
2022-10-23T22:24:20.162Z,100236.00
2022-10-23T22:26:54.868Z,100231.00
2022-10-23T22:29:26.833Z,100243.00
2022-10-23T22:31:54.360Z,100237.00
2022-10-23T22:34:48.328Z,100235.00
2022-10-23T22:37:16.354Z,100242.00
2022-10-23T22:39:43.604Z,100237.00
2022-10-23T22:42:11.247Z,100235.00
2022-10-23T22:44:38.452Z,100227.00
2022-10-23T22:47:06.359Z,100220.00
2022-10-23T22:49:33.563Z,100234.00
2022-10-23T22:52:00.858Z,100219.00
2022-10-23T22:54:28.116Z,100221.00
2022-10-23T22:56:58.034Z,100233.00
2022-10-23T22:59:25.245Z,100225.00
2022-10-23T23:01:52.422Z,100217.00
2022-10-23T23:07:12.739Z,100206.00
2022-10-23T23:09:43.602Z,100200.00
2022-10-23T23:12:14.350Z,100196.00
2022-10-23T23:14:42.780Z,100216.00
2022-10-23T23:17:11.255Z,100207.00
2022-10-23T23:19:39.037Z,100214.00
2022-10-23T23:22:06.668Z,100212.00
2022-10-23T23:24:34.131Z,100212.00
2022-10-23T23:27:01.676Z,100209.00
2022-10-23T23:29:29.833Z,100201.00
2022-10-23T23:31:57.436Z,100197.00
2022-10-23T23:34:24.678Z,100203.00
2022-10-23T23:36:51.994Z,100193.00
2022-10-23T23:39:19.247Z,100199.00
2022-10-23T23:41:46.488Z,100211.00
2022-10-23T23:44:13.671Z,100212.00
2022-10-23T23:46:41.004Z,100196.00
2022-10-23T23:49:08.390Z,100208.00
2022-10-23T23:51:35.747Z,100206.00
2022-10-23T23:54:03.092Z,100199.00
2022-10-23T23:56:30.199Z,100203.00
2022-10-23T23:58:58.740Z,100196.00
